Terminal Aerodrome Forecast
Issued by NWS Wilmington, NC

Home | Current Version | Previous Version | Text Only | Print | Product List | Glossary On
Versions: 1 2 3 4 5 6 7 8 9 10 11 12 13 14
068
FTUS42 KILM 050520
TAFMYR
TAF
KMYR 050520Z 0506/0606 04007KT 4SM -RA BR SCT008 BKN025
     FM050900 21011KT 4SM -RA BR OVC008
     FM051200 26011KT 4SM -RA BR OVC004
     FM051500 33009KT 6SM -RA BKN015
     FM051800 36008KT P6SM BKN050
     FM060200 04006KT P6SM BKN015
      AMD LTD TO CLD VIS AND WIND TIL 051100=

USA.gov is the U.S. government's official web portal to all federal, state and local government web resources and services.